OICS

Sanandaj Airport

Airport
ICAO code
OICS
IATA Code
SDG
Summary
ICAO Region
MID
ICAO Territory
Location

Sanandaj, Kurdistan Province

Serving
Sanandaj
Elevation
4522 ft
Coordinates
35° 15' 6" N , 47° 0' 49" E
KCC
Metar
Observation
OICS 041500Z 04006KT 9999 BKN040 SCT200 06/M02 Q1023 A3022
Station
Sanandaj
Date/Time
2022-12-04 15:00:00
Wind direction
40°
Wind speed
06 kts
Lowest cloud amount
broken clouds
Temperature
6°C
Dew point
-2°C
Humidity
56%
QNH
1023 hPa
Weather condition
n/a

Airport south of the city of Sanandaj, Iran.

Climatology

Warm Semi-arid climate (Köppen climate classification Bsh).

Runways

Designator Length Width Surface Rops
1/19 2640 45 ASP No/No

Airport map

Aerial View

SKYbrary Partners:

Safety knowledge contributed by: